Last 24 Hours

Thomas Mountain

10 Minute Data | America/Los_Angeles
as of 1/27/20 12:08 PM PST
Date & Time Temp (°F) Dew Pt (°F) RH (%) Wind Spd (mph) Wind Dir (°) Wind Gust (mph) Wind Gst Dir (°) Daily Max Temp (°F) Daily Min Temp (°F)
1/27/20 - 1200 55.4 23.2 28 11.0 E | 80 16.2 E | 82 56.8 41.0
1/27/20 - 1150 56.0 23.7 28 9.9 E | 83 17.3 E | 87 56.8 41.0
1/27/20 - 1140 55.2 22.3 27 9.7 E | 82 14.5 ENE | 76 55.9 41.0
1/27/20 - 1130 55.3 23.7 29 8.0 E | 97 13.2 E | 100 55.9 41.0
1/27/20 - 1120 54.7 23.4 29 9.5 ENE | 78 13.2 E | 79 55.5 41.0
1/27/20 - 1110 54.5 24.0 30 11.1 E | 82 16.4 E | 87 55.5 41.0
1/27/20 - 1100 54.0 24.2 31 13.2 ENE | 71 21.0 ENE | 75 54.6 41.0
1/27/20 - 1050 53.7 23.6 31 14.6 ENE | 65 22.1 ENE | 61 54.4 41.0
1/27/20 - 1040 53.1 23.9 32 15.7 ENE | 76 23.2 E | 80 54.0 41.0
1/27/20 - 1030 52.7 24.2 33 14.7 ENE | 75 20.0 ENE | 75 53.4 41.0
1/27/20 - 1020 52.5 24.3 33 13.5 ENE | 78 19.3 E | 80 53.1 41.0
1/27/20 - 1010 51.8 24.5 34 14.0 ENE | 73 19.5 ENE | 78 52.6 41.0
1/27/20 - 1000 51.3 24.2 34 14.8 ENE | 74 20.8 E | 83 51.9 41.0
1/27/20 - 0950 50.8 24.6 36 15.8 ENE | 77 22.1 E | 81 51.1 41.0
1/27/20 - 0940 50.6 24.6 36 16.5 ENE | 76 23.7 ENE | 73 51.0 41.0
1/27/20 - 0930 50.4 24.9 37 15.6 ENE | 75 23.7 ENE | 71 50.9 41.0
1/27/20 - 0920 50.3 24.8 37 14.7 ENE | 77 23.2 E | 94 50.8 41.0
1/27/20 - 0910 49.8 24.3 37 12.9 ENE | 77 20.4 ENE | 72 50.6 41.0
1/27/20 - 0900 49.6 24.1 36 13.1 ENE | 75 18.6 ENE | 74 50.0 41.0
1/27/20 - 0850 49.4 25.4 39 13.4 ENE | 71 17.8 ENE | 74 50.0 41.0
1/27/20 - 0840 48.9 25.6 40 12.3 ENE | 72 18.6 ENE | 72 49.5 41.0
1/27/20 - 0830 48.6 26.8 42 12.1 ENE | 72 18.4 ENE | 75 49.5 41.0
1/27/20 - 0820 48.4 29.3 47 10.5 ENE | 64 14.9 ENE | 76 49.5 41.0
1/27/20 - 0810 48.0 29.6 49 11.1 ENE | 66 16.2 ENE | 75 49.5 41.0
1/27/20 - 0800 47.4 29.8 50 11.4 ENE | 67 17.8 ENE | 75 49.5 41.0
1/27/20 - 0750 47.1 29.9 51 11.0 ENE | 68 17.3 ENE | 68 49.5 41.0
1/27/20 - 0740 46.8 29.8 51 11.8 ENE | 61 16.2 ENE | 75 49.5 41.0
1/27/20 - 0730 46.5 29.5 51 11.2 ENE | 57 14.9 ENE | 64 49.5 41.0
1/27/20 - 0720 46.2 29.4 52 10.9 NE | 56 13.6 ENE | 57 49.5 41.0
1/27/20 - 0710 45.9 29.5 52 11.9 NE | 48 14.7 NE | 51 49.5 41.0
1/27/20 - 0700 45.8 29.5 53 12.8 NE | 44 16.9 NE | 42 49.5 41.0
1/27/20 - 0650 45.9 29.6 53 13.6 NE | 45 16.7 NE | 52 49.5 41.0
1/27/20 - 0640 46.2 29.5 52 15.0 NE | 45 18.8 ENE | 57 49.5 41.0
1/27/20 - 0630 46.5 29.4 51 15.7 NE | 40 20.0 NE | 40 49.5 41.0
1/27/20 - 0620 46.5 29.2 51 15.1 NE | 41 18.2 NE | 42 49.5 41.0
1/27/20 - 0610 46.5 29.2 51 13.7 NE | 41 18.8 NE | 42 49.5 41.0
1/27/20 - 0600 46.4 29.2 51 13.4 NE | 42 18.0 NNE | 28 49.5 41.0
1/27/20 - 0550 46.3 29.1 51 13.1 NE | 50 16.7 NE | 55 49.5 41.0
1/27/20 - 0540 46.4 29.0 50 13.3 NE | 47 17.8 NE | 55 49.5 41.0
1/27/20 - 0530 46.3 28.8 50 13.3 NE | 46 17.1 ENE | 58 49.5 41.0
1/27/20 - 0520 46.1 28.5 50 13.1 NE | 55 17.1 ENE | 59 49.5 41.0
1/27/20 - 0510 47.1 28.4 48 12.7 NE | 55 18.2 NE | 39 49.5 41.0
1/27/20 - 0500 47.8 28.4 47 14.3 NE | 43 19.5 NNE | 30 49.5 41.0
1/27/20 - 0450 48.0 28.0 46 14.4 NE | 48 18.6 NE | 51 49.5 41.0
1/27/20 - 0440 48.1 27.7 45 14.5 NE | 42 18.2 NE | 48 49.5 41.0
1/27/20 - 0430 48.3 27.6 44 14.3 NE | 44 18.2 NE | 45 49.5 41.0
1/27/20 - 0420 48.7 27.5 43 14.8 NE | 39 20.2 NE | 38 49.5 41.0
1/27/20 - 0410 48.7 27.4 43 14.4 NE | 45 20.0 NE | 43 49.5 41.0
1/27/20 - 0400 48.7 26.6 42 14.6 NE | 45 23.7 NE | 46 49.5 41.0
1/27/20 - 0350 48.7 25.8 41 13.4 NE | 43 18.4 NE | 41 49.1 41.0
1/27/20 - 0340 48.3 25.3 40 11.6 NE | 42 16.9 NE | 45 49.0 41.0
1/27/20 - 0330 47.1 25.1 42 10.8 NE | 48 14.0 ENE | 64 48.5 41.0
1/27/20 - 0320 46.7 24.8 42 11.6 NE | 49 14.9 NE | 49 48.5 41.0
1/27/20 - 0310 46.9 24.7 41 12.6 NE | 46 15.8 NE | 53 48.5 41.0
1/27/20 - 0300 47.4 24.6 40 11.4 NE | 48 14.2 NE | 50 48.5 41.0
1/27/20 - 0250 47.2 24.5 41 8.8 NE | 50 11.6 ENE | 57 48.5 41.0
1/27/20 - 0240 45.4 25.0 44 7.5 NE | 44 9.6 NE | 56 48.5 41.0
1/27/20 - 0230 43.1 26.1 51 8.8 NE | 51 12.1 NE | 38 48.5 41.0
1/27/20 - 0220 41.2 27.3 57 8.4 NE | 42 10.5 NE | 45 48.5 41.0
1/27/20 - 0210 41.4 26.4 55 5.1 NE | 35 8.8 NE | 43 48.5 41.0
1/27/20 - 0200 42.4 25.5 51 5.7 NE | 34 9.0 NNE | 18 48.5 41.0
1/27/20 - 0150 43.5 25.6 49 3.2 SE | 139 5.3 SW | 218 48.5 41.0
1/27/20 - 0140 45.2 24.6 44 1.6 WSW | 243 4.6 WSW | 253 48.5 41.0
1/27/20 - 0130 47.9 22.1 36 2.0 NW | 311 3.7 NE | 56 48.5 41.0
1/27/20 - 0120 47.4 22.7 37 3.1 W | 278 4.8 WNW | 291 48.5 41.0
1/27/20 - 0110 46.4 24.0 41 3.2 W | 278 5.9 WSW | 250 46.8 41.0
1/27/20 - 0100 45.8 22.7 40 2.4 NW | 316 3.7 NNW | 331 46.7 41.0
1/27/20 - 0050 42.7 24.8 49 3.1 N | 11 5.0 NNW | 344 44.5 41.0
1/27/20 - 0040 41.5 26.4 55 4.5 NNE | 15 6.8 NNE | 12 42.7 41.0
1/27/20 - 0030 41.7 26.6 55 3.4 N | 359 6.6 N | 3 42.7 41.0
1/27/20 - 0020 42.3 26.5 53 1.8 WNW | 301 3.7 W | 264 42.7 41.4
1/27/20 - 0010 41.8 26.6 55 5.8 NNW | 343 11.0 N | 8 42.2 41.4
1/27/20 - 0000 41.4 27.2 56 8.4 NNE | 22 12.7 NNE | 27 55.0 39.7
1/26/20 - 2350 42.7 26.3 52 4.9 NNE | 27 11.4 NE | 40 55.0 39.7
1/26/20 - 2340 43.4 25.4 49 3.6 NW | 315 8.3 N | 3 55.0 39.7
1/26/20 - 2330 42.4 26.1 52 9.6 N | 7 16.2 N | 7 55.0 39.7
1/26/20 - 2320 41.3 27.4 57 12.5 NNE | 20 16.4 NNE | 18 55.0 39.7
1/26/20 - 2310 44.0 25.2 47 8.3 NNE | 25 13.6 NNE | 23 55.0 39.7
1/26/20 - 2300 45.4 24.0 43 9.5 N | 3 15.6 N | 4 55.0 39.7
1/26/20 - 2250 44.9 24.5 44 9.8 NNE | 12 14.9 NNE | 21 55.0 39.7
1/26/20 - 2240 44.1 25.7 48 11.2 N | 6 18.2 N | 353 55.0 39.7
1/26/20 - 2230 44.2 26.2 49 13.3 NNE | 22 19.3 N | 354 55.0 39.7
1/26/20 - 2220 44.1 25.9 48 12.9 NNE | 17 19.7 NNE | 27 55.0 39.7
1/26/20 - 2210 44.0 26.3 49 13.3 NNE | 22 18.2 NNE | 17 55.0 39.7
1/26/20 - 2200 44.1 27.0 51 10.7 NNE | 17 15.6 NNE | 20 55.0 39.7
1/26/20 - 2150 45.3 26.6 48 13.5 NNE | 16 21.9 N | 11 55.0 39.7
1/26/20 - 2140 45.9 25.8 45 15.6 N | 7 23.4 N | 352 55.0 39.7
1/26/20 - 2130 45.8 26.5 47 14.6 N | 7 23.7 NNW | 342 55.0 39.7
1/26/20 - 2120 43.8 31.5 62 9.2 NNE | 15 20.0 N | 6 55.0 39.7
1/26/20 - 2110 46.7 30.5 53 10.0 NNW | 344 20.0 NNW | 336 55.0 39.7
1/26/20 - 2100 46.4 30.5 54 9.5 NW | 314 17.8 NW | 314 55.0 39.7
1/26/20 - 2050 45.8 30.7 55 10.2 NNW | 327 16.7 NNW | 329 55.0 39.7
1/26/20 - 2040 44.8 30.8 58 9.2 N | 351 12.5 NNW | 343 55.0 39.7
1/26/20 - 2030 45.6 29.7 54 9.4 N | 1 12.3 N | 6 55.0 39.7
1/26/20 - 2020 45.2 29.7 54 9.3 N | 7 12.5 NNE | 15 55.0 39.7
1/26/20 - 2010 45.2 29.8 55 8.5 N | 2 11.4 N | 4 55.0 39.7
1/26/20 - 2000 44.8 30.8 58 9.9 N | 5 12.9 N | 1 55.0 39.7
1/26/20 - 1950 43.9 32.4 64 9.6 N | 11 12.3 N | 2 55.0 39.7
1/26/20 - 1940 45.1 31.6 59 7.9 N | 7 12.3 NNE | 18 55.0 39.7
1/26/20 - 1930 44.2 32.7 64 8.6 NNW | 342 11.8 NNW | 342 55.0 39.7
1/26/20 - 1920 40.2 39.0 96 10.2 N | 353 13.6 N | 351 55.0 39.7
1/26/20 - 1910 40.1 39.6 98 11.7 NNE | 28 16.9 NNE | 33 55.0 40.0
1/26/20 - 1900 40.1 39.1 96 11.0 NNE | 28 17.1 NNE | 33 55.0 40.0
1/26/20 - 1850 42.0 35.7 79 5.8 NNE | 23 12.5 NNE | 21 55.0 40.2
1/26/20 - 1840 42.4 35.1 75 1.8 NNE | 27 6.1 NNW | 329 55.0 41.5
1/26/20 - 1830 41.9 36.3 80 6.2 NNE | 12 9.9 NNE | 29 55.0 41.5
1/26/20 - 1820 42.3 36.7 80 7.7 NNE | 15 12.3 NNE | 23 55.0 42.1
1/26/20 - 1810 43.1 35.8 75 7.2 NNE | 23 10.5 NNE | 18 55.0 42.4
1/26/20 - 1800 44.6 34.9 68 1.5 E | 100 6.6 E | 84 55.0 44.3
1/26/20 - 1750 45.1 35.5 69 1.6 ESE | 107 3.3 ESE | 121 55.0 44.7
1/26/20 - 1740 45.4 35.5 68 0.8 ESE | 112 3.5 SE | 131 55.0 45.3
1/26/20 - 1730 46.2 35.2 65 1.7 ENE | 74 3.3 E | 89 55.0 45.6
1/26/20 - 1720 46.7 35.0 63 2.8 N | 4 5.3 N | 354 55.0 46.5
1/26/20 - 1710 47.1 35.9 65 4.1 NNW | 338 6.4 NNW | 334 55.0 46.8
1/26/20 - 1700 48.0 35.8 63 3.4 N | 10 6.1 N | 4 55.0 47.3
1/26/20 - 1650 49.6 33.6 54 4.0 W | 273 11.0 WNW | 283 55.0 49.2
1/26/20 - 1640 50.0 32.6 51 8.6 W | 266 13.8 W | 261 55.0 49.2
1/26/20 - 1630 50.8 31.6 48 8.8 WSW | 257 15.1 WSW | 245 55.0 49.2
1/26/20 - 1620 50.9 30.7 46 9.8 W | 268 16.9 W | 281 55.0 49.2
1/26/20 - 1610 51.5 31.4 46 12.3 WSW | 254 22.1 W | 262 55.0 49.2
1/26/20 - 1600 51.9 31.6 46 12.8 WSW | 256 19.3 W | 264 55.0 49.2
1/26/20 - 1550 51.9 30.1 43 10.2 WSW | 252 15.6 WSW | 248 55.0 49.2
1/26/20 - 1540 52.1 30.0 42 10.5 WSW | 248 17.5 WSW | 251 55.0 49.2
1/26/20 - 1530 52.7 29.4 41 9.9 WSW | 248 14.9 WSW | 252 55.0 49.2
1/26/20 - 1520 52.7 29.9 41 9.9 WSW | 244 16.4 WSW | 251 55.0 49.2
1/26/20 - 1510 52.6 28.6 39 10.9 WSW | 255 17.5 WSW | 256 55.0 49.2
1/26/20 - 1500 53.0 29.4 40 9.4 W | 270 17.8 W | 264 55.0 49.2
1/26/20 - 1450 53.0 28.6 39 9.4 WSW | 257 17.1 W | 270 55.0 49.2
1/26/20 - 1440 52.7 28.9 40 10.1 WSW | 252 17.5 SW | 225 55.0 49.2
1/26/20 - 1430 52.5 30.1 42 10.4 WSW | 250 16.7 WSW | 250 55.0 49.2
1/26/20 - 1420 52.6 28.7 39 12.2 WSW | 249 20.4 WSW | 245 55.0 49.2
1/26/20 - 1410 52.8 29.7 41 7.8 W | 265 14.5 SW | 227 55.0 49.2
1/26/20 - 1400 52.0 30.9 44 10.9 W | 262 20.0 WSW | 242 55.0 49.2
1/26/20 - 1350 53.3 29.7 40 12.1 W | 266 20.0 WSW | 252 55.0 49.2
1/26/20 - 1340 53.2 31.3 43 12.4 WSW | 256 21.3 SW | 234 55.0 49.2
1/26/20 - 1330 53.2 29.7 40 12.4 WSW | 254 21.9 WSW | 245 55.0 49.2
1/26/20 - 1320 53.7 28.0 37 12.9 WSW | 251 21.5 WSW | 256 55.0 49.2
1/26/20 - 1310 53.7 26.2 34 15.1 WSW | 248 23.4 WSW | 246 55.0 49.2
1/26/20 - 1300 54.0 28.8 38 12.9 WSW | 249 20.6 WSW | 252 55.0 49.2
1/26/20 - 1250 53.9 32.6 44 12.3 WSW | 246 19.3 WSW | 253 55.0 49.2
1/26/20 - 1240 53.7 34.0 47 10.5 WSW | 246 17.1 WSW | 245 55.0 49.2
1/26/20 - 1230 53.8 34.0 47 10.2 WSW | 250 18.2 WSW | 254 55.0 49.2
1/26/20 - 1220 53.7 34.5 48 10.6 WSW | 244 17.3 WSW | 256 55.0 49.2
1/26/20 - 1210 53.6 34.9 49 11.8 WSW | 250 19.5 WSW | 249 55.0 49.2
1/26/20 - 1200 53.5 35.2 50 11.2 WSW | 244 16.7 WSW | 249 55.0 49.2
Max 56.0 39.6 98 16.5 - 23.7 - 56.8 49.2
Avg 47.8 28.6 49 10.2 - 15.4 - - -
Min 40.1 22.1 27 0.8 - 3.3 - 42.2 39.7